sensor_id;sensor_type;location;lat;lon;timestamp;P1;durP1;ratioP1;P2;durP2;ratioP2
59978;SDS011;45839;44.882;20.650;2023-02-28T00:00:12;20.92;;;15.07;;
59978;SDS011;45839;44.882;20.650;2023-02-28T00:02:40;23.13;;;15.00;;
59978;SDS011;45839;44.882;20.650;2023-02-28T00:05:07;19.58;;;14.02;;
59978;SDS011;45839;44.882;20.650;2023-02-28T00:07:34;18.75;;;13.73;;
59978;SDS011;45839;44.882;20.650;2023-02-28T00:10:00;18.63;;;13.40;;
59978;SDS011;45839;44.882;20.650;2023-02-28T00:12:26;21.30;;;15.57;;
59978;SDS011;45839;44.882;20.650;2023-02-28T00:14:53;19.80;;;15.05;;
59978;SDS011;45839;44.882;20.650;2023-02-28T00:17:19;19.13;;;14.20;;
59978;SDS011;45839;44.882;20.650;2023-02-28T00:19:49;19.38;;;14.20;;
59978;SDS011;45839;44.882;20.650;2023-02-28T00:22:16;19.52;;;13.30;;
59978;SDS011;45839;44.882;20.650;2023-02-28T00:24:42;18.45;;;13.32;;
59978;SDS011;45839;44.882;20.650;2023-02-28T00:27:09;20.00;;;14.40;;
59978;SDS011;45839;44.882;20.650;2023-02-28T00:29:35;16.73;;;12.40;;
59978;SDS011;45839;44.882;20.650;2023-02-28T00:32:01;18.77;;;12.10;;
59978;SDS011;45839;44.882;20.650;2023-02-28T00:34:27;18.05;;;12.00;;
59978;SDS011;45839;44.882;20.650;2023-02-28T00:36:53;16.90;;;12.20;;
59978;SDS011;45839;44.882;20.650;2023-02-28T00:39:19;19.58;;;13.02;;
59978;SDS011;45839;44.882;20.650;2023-02-28T00:41:45;18.85;;;13.45;;
59978;SDS011;45839;44.882;20.650;2023-02-28T00:44:11;18.73;;;13.60;;
59978;SDS011;45839;44.882;20.650;2023-02-28T00:46:38;18.77;;;13.32;;
59978;SDS011;45839;44.882;20.650;2023-02-28T00:49:04;18.65;;;13.02;;
59978;SDS011;45839;44.882;20.650;2023-02-28T00:51:30;17.10;;;13.05;;
59978;SDS011;45839;44.882;20.650;2023-02-28T00:53:56;18.55;;;13.10;;
59978;SDS011;45839;44.882;20.650;2023-02-28T00:56:22;17.90;;;12.73;;
59978;SDS011;45839;44.882;20.650;2023-02-28T00:58:48;20.98;;;14.70;;
59978;SDS011;45839;44.882;20.650;2023-02-28T01:01:14;18.65;;;13.60;;
59978;SDS011;45839;44.882;20.650;2023-02-28T01:03:40;18.90;;;13.85;;
59978;SDS011;45839;44.882;20.650;2023-02-28T01:06:07;20.95;;;14.70;;
59978;SDS011;45839;44.882;20.650;2023-02-28T01:08:33;20.60;;;14.30;;
59978;SDS011;45839;44.882;20.650;2023-02-28T01:11:06;18.73;;;13.02;;
59978;SDS011;45839;44.882;20.650;2023-02-28T01:13:32;17.85;;;12.93;;
59978;SDS011;45839;44.882;20.650;2023-02-28T01:15:58;17.73;;;13.32;;
59978;SDS011;45839;44.882;20.650;2023-02-28T01:18:24;18.13;;;12.82;;
59978;SDS011;45839;44.882;20.650;2023-02-28T01:20:51;18.52;;;13.30;;
59978;SDS011;45839;44.882;20.650;2023-02-28T01:23:18;17.92;;;12.98;;
59978;SDS011;45839;44.882;20.650;2023-02-28T01:25:44;18.98;;;12.77;;
59978;SDS011;45839;44.882;20.650;2023-02-28T01:28:10;19.48;;;13.10;;
59978;SDS011;45839;44.882;20.650;2023-02-28T01:30:36;17.73;;;12.55;;
59978;SDS011;45839;44.882;20.650;2023-02-28T01:33:03;18.13;;;12.77;;
59978;SDS011;45839;44.882;20.650;2023-02-28T01:35:31;18.35;;;13.50;;
59978;SDS011;45839;44.882;20.650;2023-02-28T01:37:57;18.27;;;12.77;;
59978;SDS011;45839;44.882;20.650;2023-02-28T01:40:23;20.38;;;14.20;;
59978;SDS011;45839;44.882;20.650;2023-02-28T01:42:49;18.90;;;14.20;;
59978;SDS011;45839;44.882;20.650;2023-02-28T01:45:28;19.20;;;14.07;;
59978;SDS011;45839;44.882;20.650;2023-02-28T01:47:59;18.75;;;13.75;;
59978;SDS011;45839;44.882;20.650;2023-02-28T01:50:28;18.60;;;13.45;;
59978;SDS011;45839;44.882;20.650;2023-02-28T01:52:56;18.08;;;13.55;;
59978;SDS011;45839;44.882;20.650;2023-02-28T01:55:23;20.42;;;13.23;;
59978;SDS011;45839;44.882;20.650;2023-02-28T01:57:54;17.85;;;13.20;;
59978;SDS011;45839;44.882;20.650;2023-02-28T02:00:21;17.55;;;12.50;;
59978;SDS011;45839;44.882;20.650;2023-02-28T02:02:48;18.00;;;13.15;;
59978;SDS011;45839;44.882;20.650;2023-02-28T02:05:16;18.77;;;13.90;;
59978;SDS011;45839;44.882;20.650;2023-02-28T02:07:43;19.38;;;13.35;;
59978;SDS011;45839;44.882;20.650;2023-02-28T02:10:11;19.20;;;13.13;;
59978;SDS011;45839;44.882;20.650;2023-02-28T02:15:17;21.05;;;15.45;;
59978;SDS011;45839;44.882;20.650;2023-02-28T02:17:46;18.92;;;13.95;;
59978;SDS011;45839;44.882;20.650;2023-02-28T02:39:05;20.25;;;13.57;;
59978;SDS011;45839;44.882;20.650;2023-02-28T02:46:40;21.23;;;14.30;;
59978;SDS011;45839;44.882;20.650;2023-02-28T02:49:08;20.42;;;13.63;;
59978;SDS011;45839;44.882;20.650;2023-02-28T02:51:35;16.83;;;12.32;;
59978;SDS011;45839;44.882;20.650;2023-02-28T02:54:07;17.17;;;12.02;;
59978;SDS011;45839;44.882;20.650;2023-02-28T02:56:34;19.73;;;13.80;;
59978;SDS011;45839;44.882;20.650;2023-02-28T02:59:02;17.30;;;11.55;;
59978;SDS011;45839;44.882;20.650;2023-02-28T03:01:30;17.63;;;12.45;;
59978;SDS011;45839;44.882;20.650;2023-02-28T03:03:57;17.42;;;12.73;;
59978;SDS011;45839;44.882;20.650;2023-02-28T03:06:25;17.45;;;12.43;;
59978;SDS011;45839;44.882;20.650;2023-02-28T03:08:51;15.63;;;11.10;;
59978;SDS011;45839;44.882;20.650;2023-02-28T03:11:17;17.13;;;12.43;;
59978;SDS011;45839;44.882;20.650;2023-02-28T03:21:46;15.00;;;10.68;;
59978;SDS011;45839;44.882;20.650;2023-02-28T03:24:27;14.60;;;10.90;;
59978;SDS011;45839;44.882;20.650;2023-02-28T03:27:07;15.25;;;10.93;;
59978;SDS011;45839;44.882;20.650;2023-02-28T03:29:37;16.35;;;11.30;;
59978;SDS011;45839;44.882;20.650;2023-02-28T03:34:34;14.73;;;10.57;;
59978;SDS011;45839;44.882;20.650;2023-02-28T03:37:03;15.77;;;10.68;;
59978;SDS011;45839;44.882;20.650;2023-02-28T03:39:31;15.75;;;11.75;;
59978;SDS011;45839;44.882;20.650;2023-02-28T03:42:07;15.70;;;11.25;;
59978;SDS011;45839;44.882;20.650;2023-02-28T03:44:36;15.65;;;11.13;;
59978;SDS011;45839;44.882;20.650;2023-02-28T03:47:06;15.60;;;11.20;;
59978;SDS011;45839;44.882;20.650;2023-02-28T03:49:35;15.52;;;11.00;;
59978;SDS011;45839;44.882;20.650;2023-02-28T03:52:02;15.88;;;10.75;;
59978;SDS011;45839;44.882;20.650;2023-02-28T03:54:31;15.20;;;11.07;;
59978;SDS011;45839;44.882;20.650;2023-02-28T03:59:27;12.35;;;8.90;;
59978;SDS011;45839;44.882;20.650;2023-02-28T04:01:53;13.00;;;9.20;;
59978;SDS011;45839;44.882;20.650;2023-02-28T04:04:20;13.52;;;9.70;;
59978;SDS011;45839;44.882;20.650;2023-02-28T04:06:49;13.48;;;10.07;;
59978;SDS011;45839;44.882;20.650;2023-02-28T04:09:15;15.13;;;10.05;;
59978;SDS011;45839;44.882;20.650;2023-02-28T04:11:51;12.45;;;8.82;;
59978;SDS011;45839;44.882;20.650;2023-02-28T04:14:17;13.15;;;9.85;;
59978;SDS011;45839;44.882;20.650;2023-02-28T04:16:43;12.75;;;9.18;;
59978;SDS011;45839;44.882;20.650;2023-02-28T04:19:10;13.35;;;9.35;;
59978;SDS011;45839;44.882;20.650;2023-02-28T04:21:38;12.70;;;8.95;;
59978;SDS011;45839;44.882;20.650;2023-02-28T04:24:04;13.82;;;9.40;;
59978;SDS011;45839;44.882;20.650;2023-02-28T04:28:57;12.32;;;8.73;;
59978;SDS011;45839;44.882;20.650;2023-02-28T04:31:23;12.45;;;8.45;;
59978;SDS011;45839;44.882;20.650;2023-02-28T04:33:49;11.82;;;8.65;;
59978;SDS011;45839;44.882;20.650;2023-02-28T04:36:15;13.30;;;9.30;;
59978;SDS011;45839;44.882;20.650;2023-02-28T04:38:43;12.77;;;9.07;;
59978;SDS011;45839;44.882;20.650;2023-02-28T04:41:09;13.30;;;9.13;;
59978;SDS011;45839;44.882;20.650;2023-02-28T04:43:35;13.13;;;9.27;;
59978;SDS011;45839;44.882;20.650;2023-02-28T04:46:02;12.32;;;8.40;;
59978;SDS011;45839;44.882;20.650;2023-02-28T04:48:29;13.07;;;9.32;;
59978;SDS011;45839;44.882;20.650;2023-02-28T04:50:59;14.07;;;9.63;;
59978;SDS011;45839;44.882;20.650;2023-02-28T04:53:25;13.75;;;10.32;;
59978;SDS011;45839;44.882;20.650;2023-02-28T04:55:51;12.90;;;9.80;;
59978;SDS011;45839;44.882;20.650;2023-02-28T04:58:17;13.50;;;10.07;;
59978;SDS011;45839;44.882;20.650;2023-02-28T05:00:43;12.98;;;9.07;;
59978;SDS011;45839;44.882;20.650;2023-02-28T05:03:09;13.60;;;9.55;;
59978;SDS011;45839;44.882;20.650;2023-02-28T05:05:35;12.82;;;9.38;;
59978;SDS011;45839;44.882;20.650;2023-02-28T05:08:01;14.93;;;10.13;;
59978;SDS011;45839;44.882;20.650;2023-02-28T05:10:27;13.63;;;9.85;;
59978;SDS011;45839;44.882;20.650;2023-02-28T05:12:53;13.05;;;9.55;;
59978;SDS011;45839;44.882;20.650;2023-02-28T05:15:19;16.30;;;11.02;;
59978;SDS011;45839;44.882;20.650;2023-02-28T05:17:45;14.13;;;10.25;;
59978;SDS011;45839;44.882;20.650;2023-02-28T05:20:12;15.55;;;10.88;;
59978;SDS011;45839;44.882;20.650;2023-02-28T05:22:41;15.57;;;11.05;;
59978;SDS011;45839;44.882;20.650;2023-02-28T05:25:08;14.32;;;10.55;;
59978;SDS011;45839;44.882;20.650;2023-02-28T05:27:37;15.40;;;10.43;;
59978;SDS011;45839;44.882;20.650;2023-02-28T05:30:03;14.63;;;10.50;;
59978;SDS011;45839;44.882;20.650;2023-02-28T05:32:29;15.40;;;11.00;;
59978;SDS011;45839;44.882;20.650;2023-02-28T05:34:55;15.57;;;11.23;;
59978;SDS011;45839;44.882;20.650;2023-02-28T05:37:21;16.35;;;12.20;;
59978;SDS011;45839;44.882;20.650;2023-02-28T05:39:47;16.05;;;11.88;;
59978;SDS011;45839;44.882;20.650;2023-02-28T05:42:13;15.77;;;11.27;;
59978;SDS011;45839;44.882;20.650;2023-02-28T05:44:39;17.10;;;11.75;;
59978;SDS011;45839;44.882;20.650;2023-02-28T05:47:05;17.73;;;12.90;;
59978;SDS011;45839;44.882;20.650;2023-02-28T05:49:31;18.10;;;12.35;;
59978;SDS011;45839;44.882;20.650;2023-02-28T05:51:57;17.58;;;12.68;;
59978;SDS011;45839;44.882;20.650;2023-02-28T05:54:23;18.63;;;13.43;;
59978;SDS011;45839;44.882;20.650;2023-02-28T05:56:49;17.58;;;12.85;;
59978;SDS011;45839;44.882;20.650;2023-02-28T05:59:15;17.92;;;12.82;;
59978;SDS011;45839;44.882;20.650;2023-02-28T06:01:42;18.27;;;13.68;;
59978;SDS011;45839;44.882;20.650;2023-02-28T06:04:15;18.60;;;13.82;;
59978;SDS011;45839;44.882;20.650;2023-02-28T06:06:44;18.92;;;13.77;;
59978;SDS011;45839;44.882;20.650;2023-02-28T06:09:10;18.30;;;13.07;;
59978;SDS011;45839;44.882;20.650;2023-02-28T06:11:36;19.65;;;14.00;;
59978;SDS011;45839;44.882;20.650;2023-02-28T06:14:03;20.25;;;14.30;;
59978;SDS011;45839;44.882;20.650;2023-02-28T06:16:30;17.55;;;13.05;;
59978;SDS011;45839;44.882;20.650;2023-02-28T06:18:57;21.17;;;14.80;;
59978;SDS011;45839;44.882;20.650;2023-02-28T06:21:23;19.50;;;13.95;;
59978;SDS011;45839;44.882;20.650;2023-02-28T06:23:49;20.75;;;14.95;;
59978;SDS011;45839;44.882;20.650;2023-02-28T06:26:16;22.15;;;14.90;;
59978;SDS011;45839;44.882;20.650;2023-02-28T06:28:42;21.25;;;15.32;;
59978;SDS011;45839;44.882;20.650;2023-02-28T06:31:08;21.90;;;15.38;;
59978;SDS011;45839;44.882;20.650;2023-02-28T06:33:35;21.35;;;15.75;;
59978;SDS011;45839;44.882;20.650;2023-02-28T06:36:01;20.85;;;14.85;;
59978;SDS011;45839;44.882;20.650;2023-02-28T06:38:27;22.83;;;15.93;;
59978;SDS011;45839;44.882;20.650;2023-02-28T06:40:54;21.80;;;15.57;;
59978;SDS011;45839;44.882;20.650;2023-02-28T06:43:21;23.60;;;15.88;;
59978;SDS011;45839;44.882;20.650;2023-02-28T06:45:47;21.38;;;16.27;;
59978;SDS011;45839;44.882;20.650;2023-02-28T06:48:13;21.35;;;15.18;;
59978;SDS011;45839;44.882;20.650;2023-02-28T06:50:39;21.50;;;15.90;;
59978;SDS011;45839;44.882;20.650;2023-02-28T06:53:05;22.42;;;15.43;;
59978;SDS011;45839;44.882;20.650;2023-02-28T06:55:31;22.42;;;15.70;;
59978;SDS011;45839;44.882;20.650;2023-02-28T06:57:58;21.35;;;15.38;;
59978;SDS011;45839;44.882;20.650;2023-02-28T07:00:24;22.35;;;15.90;;
59978;SDS011;45839;44.882;20.650;2023-02-28T07:02:51;21.77;;;15.50;;
59978;SDS011;45839;44.882;20.650;2023-02-28T07:05:18;23.13;;;15.70;;
59978;SDS011;45839;44.882;20.650;2023-02-28T07:07:44;21.85;;;15.80;;
59978;SDS011;45839;44.882;20.650;2023-02-28T07:10:12;21.35;;;15.52;;
59978;SDS011;45839;44.882;20.650;2023-02-28T07:12:41;24.13;;;16.83;;
59978;SDS011;45839;44.882;20.650;2023-02-28T07:15:08;24.08;;;17.30;;
59978;SDS011;45839;44.882;20.650;2023-02-28T07:17:34;22.08;;;15.55;;
59978;SDS011;45839;44.882;20.650;2023-02-28T07:20:01;20.60;;;14.70;;
59978;SDS011;45839;44.882;20.650;2023-02-28T07:22:29;21.90;;;15.40;;
59978;SDS011;45839;44.882;20.650;2023-02-28T07:24:55;20.52;;;15.57;;
59978;SDS011;45839;44.882;20.650;2023-02-28T07:27:21;24.85;;;16.90;;
59978;SDS011;45839;44.882;20.650;2023-02-28T07:29:50;22.45;;;15.25;;
59978;SDS011;45839;44.882;20.650;2023-02-28T07:32:16;22.38;;;15.75;;
59978;SDS011;45839;44.882;20.650;2023-02-28T07:34:43;20.92;;;14.70;;
59978;SDS011;45839;44.882;20.650;2023-02-28T07:37:09;22.40;;;15.60;;
59978;SDS011;45839;44.882;20.650;2023-02-28T07:39:35;23.92;;;16.63;;
59978;SDS011;45839;44.882;20.650;2023-02-28T07:42:05;23.35;;;16.33;;
59978;SDS011;45839;44.882;20.650;2023-02-28T07:44:31;22.45;;;16.45;;
59978;SDS011;45839;44.882;20.650;2023-02-28T07:46:57;23.60;;;16.23;;
59978;SDS011;45839;44.882;20.650;2023-02-28T07:49:24;23.02;;;16.33;;
59978;SDS011;45839;44.882;20.650;2023-02-28T07:51:50;23.42;;;16.13;;
59978;SDS011;45839;44.882;20.650;2023-02-28T07:54:16;24.02;;;16.20;;
59978;SDS011;45839;44.882;20.650;2023-02-28T07:56:42;23.23;;;16.27;;
59978;SDS011;45839;44.882;20.650;2023-02-28T07:59:08;22.08;;;15.70;;
59978;SDS011;45839;44.882;20.650;2023-02-28T08:01:34;21.90;;;15.75;;
59978;SDS011;45839;44.882;20.650;2023-02-28T08:04:00;23.08;;;15.65;;
59978;SDS011;45839;44.882;20.650;2023-02-28T08:06:26;22.27;;;16.23;;
59978;SDS011;45839;44.882;20.650;2023-02-28T08:08:52;21.17;;;15.15;;
59978;SDS011;45839;44.882;20.650;2023-02-28T08:11:18;22.90;;;16.15;;
59978;SDS011;45839;44.882;20.650;2023-02-28T08:13:45;22.27;;;14.95;;
59978;SDS011;45839;44.882;20.650;2023-02-28T08:16:12;22.70;;;15.55;;
59978;SDS011;45839;44.882;20.650;2023-02-28T08:18:46;21.38;;;14.93;;
59978;SDS011;45839;44.882;20.650;2023-02-28T08:21:12;20.95;;;15.02;;
59978;SDS011;45839;44.882;20.650;2023-02-28T08:23:38;21.15;;;14.85;;
59978;SDS011;45839;44.882;20.650;2023-02-28T08:26:05;22.08;;;15.25;;
59978;SDS011;45839;44.882;20.650;2023-02-28T08:28:31;23.92;;;15.98;;
59978;SDS011;45839;44.882;20.650;2023-02-28T08:30:57;20.88;;;15.80;;
59978;SDS011;45839;44.882;20.650;2023-02-28T08:33:24;22.92;;;16.30;;
59978;SDS011;45839;44.882;20.650;2023-02-28T08:35:54;21.80;;;15.27;;
59978;SDS011;45839;44.882;20.650;2023-02-28T08:38:20;23.30;;;16.42;;
59978;SDS011;45839;44.882;20.650;2023-02-28T08:40:46;22.35;;;15.68;;
59978;SDS011;45839;44.882;20.650;2023-02-28T08:43:12;21.95;;;15.98;;
59978;SDS011;45839;44.882;20.650;2023-02-28T08:45:38;23.20;;;16.33;;
59978;SDS011;45839;44.882;20.650;2023-02-28T08:48:04;22.13;;;15.80;;
59978;SDS011;45839;44.882;20.650;2023-02-28T08:50:30;24.45;;;17.17;;
59978;SDS011;45839;44.882;20.650;2023-02-28T08:52:56;22.02;;;15.98;;
59978;SDS011;45839;44.882;20.650;2023-02-28T08:55:22;21.80;;;16.23;;
59978;SDS011;45839;44.882;20.650;2023-02-28T08:57:48;26.52;;;17.75;;
59978;SDS011;45839;44.882;20.650;2023-02-28T09:00:14;24.40;;;16.92;;
59978;SDS011;45839;44.882;20.650;2023-02-28T09:02:40;24.95;;;17.95;;
59978;SDS011;45839;44.882;20.650;2023-02-28T09:05:08;27.40;;;19.88;;
59978;SDS011;45839;44.882;20.650;2023-02-28T09:07:34;27.67;;;18.08;;
59978;SDS011;45839;44.882;20.650;2023-02-28T09:10:00;29.45;;;20.10;;
59978;SDS011;45839;44.882;20.650;2023-02-28T09:12:27;26.77;;;18.27;;
59978;SDS011;45839;44.882;20.650;2023-02-28T09:14:53;27.42;;;19.08;;
59978;SDS011;45839;44.882;20.650;2023-02-28T09:17:20;28.10;;;19.23;;
59978;SDS011;45839;44.882;20.650;2023-02-28T09:19:47;27.70;;;18.45;;
59978;SDS011;45839;44.882;20.650;2023-02-28T09:22:13;25.58;;;16.83;;
59978;SDS011;45839;44.882;20.650;2023-02-28T09:24:39;24.83;;;16.40;;
59978;SDS011;45839;44.882;20.650;2023-02-28T09:27:05;23.25;;;15.98;;
59978;SDS011;45839;44.882;20.650;2023-02-28T09:29:32;21.27;;;15.50;;
59978;SDS011;45839;44.882;20.650;2023-02-28T09:31:58;21.60;;;15.02;;
59978;SDS011;45839;44.882;20.650;2023-02-28T09:34:25;20.88;;;14.77;;
59978;SDS011;45839;44.882;20.650;2023-02-28T09:36:51;20.63;;;14.95;;
59978;SDS011;45839;44.882;20.650;2023-02-28T09:39:19;20.65;;;14.45;;
59978;SDS011;45839;44.882;20.650;2023-02-28T09:41:47;20.17;;;15.13;;
59978;SDS011;45839;44.882;20.650;2023-02-28T09:46:55;18.67;;;13.52;;
59978;SDS011;45839;44.882;20.650;2023-02-28T09:49:25;20.85;;;14.68;;
59978;SDS011;45839;44.882;20.650;2023-02-28T09:54:20;21.50;;;15.07;;
59978;SDS011;45839;44.882;20.650;2023-02-28T09:56:56;23.02;;;15.20;;
59978;SDS011;45839;44.882;20.650;2023-02-28T10:07:01;168.73;;;98.05;;
59978;SDS011;45839;44.882;20.650;2023-02-28T10:09:30;147.98;;;92.07;;
59978;SDS011;45839;44.882;20.650;2023-02-28T10:11:59;140.75;;;90.88;;
59978;SDS011;45839;44.882;20.650;2023-02-28T10:14:27;27.08;;;19.90;;
59978;SDS011;45839;44.882;20.650;2023-02-28T10:17:05;22.13;;;15.23;;
59978;SDS011;45839;44.882;20.650;2023-02-28T10:19:35;17.23;;;13.23;;
59978;SDS011;45839;44.882;20.650;2023-02-28T10:24:40;19.10;;;14.23;;
59978;SDS011;45839;44.882;20.650;2023-02-28T10:27:17;20.08;;;14.75;;
59978;SDS011;45839;44.882;20.650;2023-02-28T10:29:45;20.13;;;14.40;;
59978;SDS011;45839;44.882;20.650;2023-02-28T10:32:16;20.58;;;13.63;;
59978;SDS011;45839;44.882;20.650;2023-02-28T10:34:42;17.75;;;12.93;;
59978;SDS011;45839;44.882;20.650;2023-02-28T10:37:09;18.00;;;13.00;;
59978;SDS011;45839;44.882;20.650;2023-02-28T10:42:05;19.05;;;13.88;;
59978;SDS011;45839;44.882;20.650;2023-02-28T10:44:43;19.55;;;12.85;;
59978;SDS011;45839;44.882;20.650;2023-02-28T10:47:16;17.92;;;12.57;;
59978;SDS011;45839;44.882;20.650;2023-02-28T10:49:49;17.83;;;13.57;;
59978;SDS011;45839;44.882;20.650;2023-02-28T10:52:39;20.33;;;13.75;;
59978;SDS011;45839;44.882;20.650;2023-02-28T10:55:19;18.73;;;13.32;;
59978;SDS011;45839;44.882;20.650;2023-02-28T10:57:46;18.67;;;13.18;;
59978;SDS011;45839;44.882;20.650;2023-02-28T11:00:23;20.63;;;13.98;;
59978;SDS011;45839;44.882;20.650;2023-02-28T11:02:50;21.58;;;14.20;;
59978;SDS011;45839;44.882;20.650;2023-02-28T11:05:31;18.52;;;13.07;;
59978;SDS011;45839;44.882;20.650;2023-02-28T11:08:14;18.27;;;13.45;;
59978;SDS011;45839;44.882;20.650;2023-02-28T11:10:44;19.83;;;14.35;;
59978;SDS011;45839;44.882;20.650;2023-02-28T11:13:17;21.38;;;15.30;;
59978;SDS011;45839;44.882;20.650;2023-02-28T11:15:58;20.63;;;14.98;;
59978;SDS011;45839;44.882;20.650;2023-02-28T11:18:27;24.95;;;15.38;;
59978;SDS011;45839;44.882;20.650;2023-02-28T11:20:54;21.10;;;14.85;;
59978;SDS011;45839;44.882;20.650;2023-02-28T11:23:21;22.17;;;16.00;;
59978;SDS011;45839;44.882;20.650;2023-02-28T11:25:51;22.50;;;15.63;;
59978;SDS011;45839;44.882;20.650;2023-02-28T11:28:38;24.25;;;16.27;;
59978;SDS011;45839;44.882;20.650;2023-02-28T11:33:44;20.55;;;14.05;;
59978;SDS011;45839;44.882;20.650;2023-02-28T11:36:14;21.30;;;14.48;;
59978;SDS011;45839;44.882;20.650;2023-02-28T11:38:42;20.17;;;14.02;;
59978;SDS011;45839;44.882;20.650;2023-02-28T11:46:06;20.45;;;13.52;;
59978;SDS011;45839;44.882;20.650;2023-02-28T11:56:06;20.03;;;13.47;;
59978;SDS011;45839;44.882;20.650;2023-02-28T11:58:45;20.45;;;13.77;;
59978;SDS011;45839;44.882;20.650;2023-02-28T12:19:16;21.77;;;14.10;;
59978;SDS011;45839;44.882;20.650;2023-02-28T12:24:17;22.23;;;16.08;;
59978;SDS011;45839;44.882;20.650;2023-02-28T12:26:48;21.85;;;15.13;;
59978;SDS011;45839;44.882;20.650;2023-02-28T12:34:16;20.83;;;14.18;;
59978;SDS011;45839;44.882;20.650;2023-02-28T12:36:43;22.75;;;15.20;;
59978;SDS011;45839;44.882;20.650;2023-02-28T12:44:11;20.73;;;14.70;;
59978;SDS011;45839;44.882;20.650;2023-02-28T12:46:39;24.30;;;14.52;;
59978;SDS011;45839;44.882;20.650;2023-02-28T12:49:08;21.55;;;14.82;;
59978;SDS011;45839;44.882;20.650;2023-02-28T12:51:35;24.67;;;15.13;;
59978;SDS011;45839;44.882;20.650;2023-02-28T12:54:04;21.77;;;14.57;;
59978;SDS011;45839;44.882;20.650;2023-02-28T12:56:35;19.70;;;13.80;;
59978;SDS011;45839;44.882;20.650;2023-02-28T13:09:19;20.48;;;13.73;;
59978;SDS011;45839;44.882;20.650;2023-02-28T13:14:20;19.50;;;13.15;;
59978;SDS011;45839;44.882;20.650;2023-02-28T13:16:56;20.45;;;14.75;;
59978;SDS011;45839;44.882;20.650;2023-02-28T13:19:23;20.35;;;13.68;;
59978;SDS011;45839;44.882;20.650;2023-02-28T13:21:51;21.98;;;15.13;;
59978;SDS011;45839;44.882;20.650;2023-02-28T13:29:29;25.08;;;17.75;;
59978;SDS011;45839;44.882;20.650;2023-02-28T13:34:38;26.85;;;18.60;;
59978;SDS011;45839;44.882;20.650;2023-02-28T13:47:29;31.05;;;20.52;;
59978;SDS011;45839;44.882;20.650;2023-02-28T13:52:48;24.60;;;16.70;;
59978;SDS011;45839;44.882;20.650;2023-02-28T13:55:23;24.60;;;17.08;;
59978;SDS011;45839;44.882;20.650;2023-02-28T13:57:57;25.20;;;15.90;;
59978;SDS011;45839;44.882;20.650;2023-02-28T14:05:32;21.15;;;14.98;;
59978;SDS011;45839;44.882;20.650;2023-02-28T14:08:02;21.73;;;15.48;;
59978;SDS011;45839;44.882;20.650;2023-02-28T14:10:49;23.77;;;16.15;;
59978;SDS011;45839;44.882;20.650;2023-02-28T14:15:55;21.17;;;14.77;;
59978;SDS011;45839;44.882;20.650;2023-02-28T14:20:53;20.27;;;14.38;;
59978;SDS011;45839;44.882;20.650;2023-02-28T14:31:15;20.35;;;14.00;;
59978;SDS011;45839;44.882;20.650;2023-02-28T14:36:35;19.60;;;13.10;;
59978;SDS011;45839;44.882;20.650;2023-02-28T14:39:06;20.45;;;13.13;;
59978;SDS011;45839;44.882;20.650;2023-02-28T14:41:34;20.33;;;13.20;;
59978;SDS011;45839;44.882;20.650;2023-02-28T14:44:02;21.90;;;13.23;;
59978;SDS011;45839;44.882;20.650;2023-02-28T14:46:30;20.08;;;13.60;;
59978;SDS011;45839;44.882;20.650;2023-02-28T14:49:00;22.95;;;15.25;;
59978;SDS011;45839;44.882;20.650;2023-02-28T14:51:26;20.20;;;13.93;;
59978;SDS011;45839;44.882;20.650;2023-02-28T14:53:56;22.15;;;13.98;;
59978;SDS011;45839;44.882;20.650;2023-02-28T14:56:23;24.30;;;16.75;;
59978;SDS011;45839;44.882;20.650;2023-02-28T14:58:51;24.45;;;16.00;;
59978;SDS011;45839;44.882;20.650;2023-02-28T15:01:18;22.73;;;15.65;;
59978;SDS011;45839;44.882;20.650;2023-02-28T15:03:45;24.27;;;15.07;;
59978;SDS011;45839;44.882;20.650;2023-02-28T15:06:13;23.95;;;15.38;;
59978;SDS011;45839;44.882;20.650;2023-02-28T15:08:40;21.77;;;14.05;;
59978;SDS011;45839;44.882;20.650;2023-02-28T15:13:48;23.15;;;14.63;;
59978;SDS011;45839;44.882;20.650;2023-02-28T15:16:36;20.65;;;13.93;;
59978;SDS011;45839;44.882;20.650;2023-02-28T15:19:02;20.55;;;13.75;;
59978;SDS011;45839;44.882;20.650;2023-02-28T15:23:59;20.33;;;13.32;;
59978;SDS011;45839;44.882;20.650;2023-02-28T15:26:29;23.15;;;14.00;;
59978;SDS011;45839;44.882;20.650;2023-02-28T15:28:58;21.23;;;12.63;;
59978;SDS011;45839;44.882;20.650;2023-02-28T15:31:28;22.40;;;13.07;;
59978;SDS011;45839;44.882;20.650;2023-02-28T15:33:56;19.15;;;12.93;;
59978;SDS011;45839;44.882;20.650;2023-02-28T15:36:26;22.67;;;14.20;;
59978;SDS011;45839;44.882;20.650;2023-02-28T15:38:54;22.20;;;13.95;;
59978;SDS011;45839;44.882;20.650;2023-02-28T15:41:24;22.95;;;14.80;;
59978;SDS011;45839;44.882;20.650;2023-02-28T15:44:13;24.02;;;15.38;;
59978;SDS011;45839;44.882;20.650;2023-02-28T15:46:37;28.50;;;16.13;;
59978;SDS011;45839;44.882;20.650;2023-02-28T15:49:03;25.02;;;15.77;;
59978;SDS011;45839;44.882;20.650;2023-02-28T15:51:33;23.95;;;14.90;;
59978;SDS011;45839;44.882;20.650;2023-02-28T15:54:05;24.02;;;15.90;;
59978;SDS011;45839;44.882;20.650;2023-02-28T15:56:33;26.15;;;16.73;;
59978;SDS011;45839;44.882;20.650;2023-02-28T15:59:03;24.48;;;15.50;;
59978;SDS011;45839;44.882;20.650;2023-02-28T16:01:32;27.77;;;17.25;;
59978;SDS011;45839;44.882;20.650;2023-02-28T16:04:06;25.95;;;16.17;;
59978;SDS011;45839;44.882;20.650;2023-02-28T16:06:42;27.80;;;16.98;;
59978;SDS011;45839;44.882;20.650;2023-02-28T16:09:13;29.35;;;17.98;;
59978;SDS011;45839;44.882;20.650;2023-02-28T16:11:44;30.58;;;19.77;;
59978;SDS011;45839;44.882;20.650;2023-02-28T16:14:15;34.10;;;19.65;;
59978;SDS011;45839;44.882;20.650;2023-02-28T16:16:42;32.50;;;19.52;;
59978;SDS011;45839;44.882;20.650;2023-02-28T16:19:09;33.25;;;21.52;;
59978;SDS011;45839;44.882;20.650;2023-02-28T16:21:35;31.15;;;20.73;;
59978;SDS011;45839;44.882;20.650;2023-02-28T16:24:01;32.80;;;20.35;;
59978;SDS011;45839;44.882;20.650;2023-02-28T16:26:27;32.55;;;20.77;;
59978;SDS011;45839;44.882;20.650;2023-02-28T16:28:53;34.10;;;21.38;;
59978;SDS011;45839;44.882;20.650;2023-02-28T16:31:20;31.23;;;19.60;;
59978;SDS011;45839;44.882;20.650;2023-02-28T16:33:46;33.28;;;20.73;;
59978;SDS011;45839;44.882;20.650;2023-02-28T16:36:13;32.65;;;19.65;;
59978;SDS011;45839;44.882;20.650;2023-02-28T16:38:39;31.55;;;18.88;;
59978;SDS011;45839;44.882;20.650;2023-02-28T16:41:05;31.42;;;19.02;;
59978;SDS011;45839;44.882;20.650;2023-02-28T16:43:32;31.75;;;19.38;;
59978;SDS011;45839;44.882;20.650;2023-02-28T16:45:58;28.23;;;18.95;;
59978;SDS011;45839;44.882;20.650;2023-02-28T16:48:26;30.20;;;19.58;;
59978;SDS011;45839;44.882;20.650;2023-02-28T16:50:52;36.42;;;21.00;;
59978;SDS011;45839;44.882;20.650;2023-02-28T16:53:18;36.28;;;22.42;;
59978;SDS011;45839;44.882;20.650;2023-02-28T16:55:44;50.40;;;27.88;;
59978;SDS011;45839;44.882;20.650;2023-02-28T16:58:15;43.67;;;27.02;;